Time;durP1;ratioP1;P1;durP2;ratioP2;P2;SDS_P1;SDS_P2;PMS_P1;PMS_P2;Temp;Humidity;BMP_temperature;BMP_pressure;BME280_temperature;BME280_humidity;BME280_pressure;Samples;Min_cycle;Max_cycle;Signal;HPM_P1;HPM_P2
2021/10/08 00:00:59;;;;;;;0.10;0.10;;;;;;;;;;5038766;28;20204;-71
2021/10/08 00:03:25;;;;;;;0.00;0.00;;;;;;;;;;5033811;28;20212;-71
2021/10/08 00:05:51;;;;;;;0.10;0.10;;;;;;;;;;5034686;28;20206;-71
2021/10/08 00:08:19;;;;;;;0.10;0.10;;;;;;;;;;5025882;28;20256;-71
2021/10/08 00:10:48;;;;;;;0.10;0.10;;;;;;;;;;5029049;28;20212;-70
2021/10/08 00:13:14;;;;;;;0.10;0.10;;;;;;;;;;5045530;28;20202;-71
2021/10/08 00:15:40;;;;;;;0.10;0.10;;;;;;;;;;5045162;28;20228;-71
2021/10/08 00:18:07;;;;;;;0.10;0.10;;;;;;;;;;5045457;28;20243;-69
2021/10/08 00:20:33;;;;;;;0.10;0.10;;;;;;;;;;5058508;28;20204;-71
2021/10/08 00:23:01;;;;;;;0.10;0.10;;;;;;;;;;5045796;28;20204;-70
2021/10/08 00:25:29;;;;;;;0.10;0.10;;;;;;;;;;5045066;28;20237;-71
2021/10/08 00:27:55;;;;;;;0.10;0.10;;;;;;;;;;5031137;28;20291;-70
2021/10/08 00:30:21;;;;;;;0.03;0.03;;;;;;;;;;5045002;28;20204;-71
2021/10/08 00:32:48;;;;;;;0.07;0.07;;;;;;;;;;5046495;28;20206;-70
2021/10/08 00:35:14;;;;;;;0.10;0.10;;;;;;;;;;5045126;28;20299;-70
2021/10/08 00:37:41;;;;;;;0.10;0.10;;;;;;;;;;5045152;28;20443;-70
2021/10/08 00:40:08;;;;;;;0.10;0.10;;;;;;;;;;5030942;28;20244;-71
2021/10/08 00:42:35;;;;;;;0.10;0.10;;;;;;;;;;5045116;28;20440;-70
2021/10/08 00:45:01;;;;;;;0.10;0.10;;;;;;;;;;5040961;28;20230;-71
2021/10/08 00:47:28;;;;;;;0.10;0.10;;;;;;;;;;5035005;28;20228;-71
2021/10/08 00:49:55;;;;;;;0.10;0.10;;;;;;;;;;5043882;28;20231;-71
2021/10/08 00:52:21;;;;;;;0.10;0.10;;;;;;;;;;5039855;28;20262;-71
2021/10/08 00:54:47;;;;;;;0.10;0.10;;;;;;;;;;5049887;28;20212;-70
2021/10/08 00:57:13;;;;;;;0.10;0.10;;;;;;;;;;5036803;28;20205;-71
2021/10/08 00:59:41;;;;;;;0.10;0.10;;;;;;;;;;5044671;28;20306;-70
2021/10/08 01:02:07;;;;;;;0.10;0.10;;;;;;;;;;5044351;28;20212;-70
2021/10/08 01:04:34;;;;;;;0.10;0.10;;;;;;;;;;5035394;28;20202;-71
2021/10/08 01:07:00;;;;;;;0.10;0.10;;;;;;;;;;5041343;28;20426;-70
2021/10/08 01:09:27;;;;;;;0.10;0.10;;;;;;;;;;5043048;28;20407;-70
2021/10/08 01:11:53;;;;;;;0.10;0.10;;;;;;;;;;5044500;28;20208;-70
2021/10/08 01:14:19;;;;;;;0.10;0.10;;;;;;;;;;5038114;28;20208;-71
2021/10/08 01:16:47;;;;;;;0.10;0.10;;;;;;;;;;5037521;28;20335;-72
2021/10/08 01:19:13;;;;;;;0.10;0.10;;;;;;;;;;5043063;28;20244;-72
2021/10/08 01:21:40;;;;;;;0.10;0.10;;;;;;;;;;5053768;28;20502;-70
2021/10/08 01:24:07;;;;;;;0.10;0.10;;;;;;;;;;5043805;28;20217;-70
2021/10/08 01:26:33;;;;;;;0.10;0.10;;;;;;;;;;5053067;28;20226;-71
2021/10/08 01:28:59;;;;;;;0.10;0.10;;;;;;;;;;5048832;28;20432;-71
2021/10/08 01:31:25;;;;;;;0.10;0.10;;;;;;;;;;5050810;28;20205;-71
2021/10/08 01:33:52;;;;;;;0.10;0.10;;;;;;;;;;5050744;28;20231;-71
2021/10/08 01:36:18;;;;;;;0.10;0.10;;;;;;;;;;5039079;28;20221;-71
2021/10/08 01:38:46;;;;;;;0.10;0.10;;;;;;;;;;5035267;28;20233;-71
2021/10/08 01:41:12;;;;;;;0.10;0.10;;;;;;;;;;5043892;28;20205;-71
2021/10/08 01:43:38;;;;;;;0.10;0.10;;;;;;;;;;5043636;28;20207;-72
2021/10/08 01:46:05;;;;;;;0.10;0.10;;;;;;;;;;5057661;28;20242;-71
2021/10/08 01:48:31;;;;;;;0.03;0.03;;;;;;;;;;5043763;28;20225;-71
2021/10/08 01:50:57;;;;;;;0.10;0.10;;;;;;;;;;5043762;28;20213;-71
2021/10/08 01:53:23;;;;;;;0.10;0.10;;;;;;;;;;5043412;28;20254;-71
2021/10/08 01:55:51;;;;;;;0.10;0.10;;;;;;;;;;5043731;28;20211;-71
2021/10/08 01:58:18;;;;;;;0.10;0.10;;;;;;;;;;5043309;28;20207;-71
2021/10/08 02:00:44;;;;;;;0.10;0.10;;;;;;;;;;5053401;28;20222;-70
2021/10/08 02:03:10;;;;;;;0.10;0.10;;;;;;;;;;5046271;28;20293;-70
2021/10/08 02:05:36;;;;;;;0.10;0.10;;;;;;;;;;5043665;28;20524;-70
2021/10/08 02:08:03;;;;;;;0.10;0.10;;;;;;;;;;5043416;28;20530;-70
2021/10/08 02:10:29;;;;;;;0.10;0.10;;;;;;;;;;5043415;28;20253;-71
2021/10/08 02:12:57;;;;;;;0.10;0.10;;;;;;;;;;5043410;28;20204;-71
2021/10/08 02:15:23;;;;;;;0.07;0.07;;;;;;;;;;5043228;28;20326;-71
2021/10/08 02:17:49;;;;;;;0.10;0.10;;;;;;;;;;5043350;28;20541;-71
2021/10/08 02:20:15;;;;;;;0.10;0.10;;;;;;;;;;5043124;28;20211;-71
2021/10/08 02:22:42;;;;;;;0.10;0.10;;;;;;;;;;5038233;28;20518;-71
2021/10/08 02:25:09;;;;;;;0.10;0.10;;;;;;;;;;5034583;28;20207;-70
2021/10/08 02:27:35;;;;;;;0.10;0.10;;;;;;;;;;5042927;28;20440;-71
2021/10/08 02:30:03;;;;;;;0.10;0.10;;;;;;;;;;5043070;28;20266;-71
2021/10/08 02:32:29;;;;;;;0.10;0.10;;;;;;;;;;5039909;28;20558;-70
2021/10/08 02:34:55;;;;;;;0.10;0.10;;;;;;;;;;5032517;28;20283;-71
2021/10/08 02:37:22;;;;;;;0.10;0.10;;;;;;;;;;5042725;28;20269;-70
2021/10/08 02:39:48;;;;;;;0.10;0.10;;;;;;;;;;5042608;28;20244;-71
2021/10/08 02:42:14;;;;;;;0.10;0.10;;;;;;;;;;5042827;28;20208;-70
2021/10/08 02:44:40;;;;;;;0.10;0.10;;;;;;;;;;5023132;28;20217;-71
2021/10/08 02:47:08;;;;;;;0.30;0.30;;;;;;;;;;5046631;28;20234;-70
2021/10/08 02:49:37;;;;;;;0.10;0.10;;;;;;;;;;5027129;28;20384;-71
2021/10/08 02:52:04;;;;;;;0.10;0.10;;;;;;;;;;5043579;28;20257;-70
2021/10/08 02:54:30;;;;;;;0.10;0.10;;;;;;;;;;5043394;28;20253;-71
2021/10/08 02:56:56;;;;;;;0.10;0.10;;;;;;;;;;5023216;28;20396;-71
2021/10/08 02:59:23;;;;;;;0.10;0.10;;;;;;;;;;5022630;28;20249;-71
2021/10/08 03:01:49;;;;;;;0.10;0.10;;;;;;;;;;5029678;28;20207;-72
2021/10/08 03:04:17;;;;;;;0.10;0.10;;;;;;;;;;5042381;28;20246;-71
2021/10/08 03:06:43;;;;;;;0.10;0.10;;;;;;;;;;5042510;28;20212;-70
2021/10/08 03:09:09;;;;;;;0.00;0.00;;;;;;;;;;5042605;28;20207;-70
2021/10/08 03:11:36;;;;;;;0.10;0.10;;;;;;;;;;5025749;28;20487;-71
2021/10/08 03:14:02;;;;;;;0.20;0.20;;;;;;;;;;5024437;28;20247;-71
2021/10/08 03:16:28;;;;;;;0.10;0.10;;;;;;;;;;5040661;28;20216;-70
2021/10/08 03:18:54;;;;;;;0.10;0.10;;;;;;;;;;5028521;28;20445;-70
2021/10/08 03:21:22;;;;;;;0.10;0.10;;;;;;;;;;5046553;28;20242;-71
2021/10/08 04:03:27;;;;;;;0.10;0.10;;;;;;;;;;5046773;28;20186;-75
2021/10/08 04:05:53;;;;;;;0.10;0.10;;;;;;;;;;5045196;28;20253;-74
2021/10/08 04:08:20;;;;;;;0.10;0.10;;;;;;;;;;5045111;28;20265;-75
2021/10/08 04:10:46;;;;;;;0.10;0.10;;;;;;;;;;5046143;28;20500;-75
2021/10/08 04:13:12;;;;;;;0.10;0.10;;;;;;;;;;5045163;28;20248;-74
2021/10/08 04:15:38;;;;;;;0.10;0.10;;;;;;;;;;5045322;28;20206;-74
2021/10/08 04:18:05;;;;;;;0.10;0.10;;;;;;;;;;5045327;28;20203;-74
2021/10/08 04:20:32;;;;;;;0.10;0.10;;;;;;;;;;5048974;28;20204;-75
2021/10/08 04:22:58;;;;;;;0.10;0.10;;;;;;;;;;5052927;28;20253;-73
2021/10/08 04:25:26;;;;;;;0.03;0.03;;;;;;;;;;5037360;28;20279;-75
2021/10/08 04:27:52;;;;;;;0.00;0.00;;;;;;;;;;5045091;28;20312;-75
2021/10/08 04:30:18;;;;;;;0.10;0.10;;;;;;;;;;5045494;28;20398;-74
2021/10/08 04:32:44;;;;;;;0.10;0.10;;;;;;;;;;5048954;28;20563;-74
2021/10/08 04:35:11;;;;;;;0.10;0.10;;;;;;;;;;5055336;28;20227;-74
2021/10/08 04:37:38;;;;;;;0.10;0.10;;;;;;;;;;5045148;28;20202;-66
2021/10/08 04:40:05;;;;;;;0.10;0.10;;;;;;;;;;5052142;28;20548;-66
2021/10/08 04:42:31;;;;;;;0.10;0.10;;;;;;;;;;5044112;28;20241;-65
2021/10/08 04:44:58;;;;;;;0.10;0.10;;;;;;;;;;5032258;28;20207;-65
2021/10/08 04:47:24;;;;;;;0.10;0.10;;;;;;;;;;5034755;28;20330;-65
2021/10/08 04:49:50;;;;;;;0.10;0.10;;;;;;;;;;5036461;28;20222;-67
2021/10/08 04:52:16;;;;;;;0.10;0.10;;;;;;;;;;5029771;28;20253;-65
2021/10/08 04:54:44;;;;;;;0.10;0.10;;;;;;;;;;5034457;28;20202;-66
2021/10/08 04:57:10;;;;;;;2.70;2.60;;;;;;;;;;5034295;28;20389;-66
2021/10/08 04:59:36;;;;;;;0.10;0.10;;;;;;;;;;5042474;28;20389;-66
2021/10/08 05:02:03;;;;;;;0.50;0.50;;;;;;;;;;5057389;28;20257;-65
2021/10/08 05:04:29;;;;;;;0.10;0.10;;;;;;;;;;5033199;28;20209;-65
2021/10/08 05:06:56;;;;;;;0.10;0.10;;;;;;;;;;5043030;28;20207;-65
2021/10/08 05:09:22;;;;;;;0.10;0.10;;;;;;;;;;5044250;28;20250;-64
2021/10/08 05:11:50;;;;;;;0.10;0.10;;;;;;;;;;5052240;28;20202;-66
2021/10/08 05:14:16;;;;;;;0.10;0.10;;;;;;;;;;5024437;28;20555;-66
2021/10/08 05:16:42;;;;;;;0.10;0.10;;;;;;;;;;5040475;28;20450;-66
2021/10/08 05:19:09;;;;;;;0.10;0.10;;;;;;;;;;5059178;28;20200;-66
2021/10/08 05:21:35;;;;;;;0.10;0.10;;;;;;;;;;5054251;28;20292;-66
2021/10/08 05:24:01;;;;;;;0.10;0.10;;;;;;;;;;5045930;28;20214;-65
2021/10/08 05:26:28;;;;;;;0.10;0.10;;;;;;;;;;5056183;28;20206;-66
2021/10/08 05:28:56;;;;;;;0.10;0.10;;;;;;;;;;5044138;28;20562;-67
2021/10/08 05:31:22;;;;;;;0.10;0.10;;;;;;;;;;5043870;28;20406;-66
2021/10/08 05:33:48;;;;;;;0.10;0.10;;;;;;;;;;5043873;28;20207;-67
2021/10/08 05:36:15;;;;;;;0.10;0.10;;;;;;;;;;5043995;28;20249;-66
2021/10/08 05:38:41;;;;;;;0.10;0.10;;;;;;;;;;5043890;28;20245;-66
2021/10/08 05:41:07;;;;;;;0.10;0.10;;;;;;;;;;5043623;28;20207;-71
2021/10/08 05:43:33;;;;;;;0.10;0.10;;;;;;;;;;5027212;28;20211;-70
2021/10/08 05:46:01;;;;;;;0.10;0.10;;;;;;;;;;5036892;28;20199;-71
2021/10/08 05:48:27;;;;;;;0.10;0.10;;;;;;;;;;5024002;28;20283;-71
2021/10/08 05:50:53;;;;;;;0.10;0.10;;;;;;;;;;5023674;28;20510;-71
2021/10/08 05:53:19;;;;;;;0.10;0.10;;;;;;;;;;5034907;28;20246;-71
2021/10/08 05:55:46;;;;;;;0.10;0.10;;;;;;;;;;5040318;28;20203;-71
2021/10/08 05:58:12;;;;;;;0.10;0.10;;;;;;;;;;5023927;28;20198;-70
2021/10/08 06:00:38;;;;;;;0.10;0.10;;;;;;;;;;5046629;28;20461;-71
2021/10/08 06:03:06;;;;;;;0.10;0.10;;;;;;;;;;5043520;28;20201;-70
2021/10/08 06:05:34;;;;;;;0.10;0.10;;;;;;;;;;5030227;28;20401;-72
2021/10/08 06:08:00;;;;;;;0.10;0.10;;;;;;;;;;5031830;28;20230;-71
2021/10/08 06:10:26;;;;;;;0.10;0.10;;;;;;;;;;5033669;28;20206;-71
2021/10/08 06:12:53;;;;;;;0.10;0.10;;;;;;;;;;5028090;28;20263;-69
2021/10/08 06:15:19;;;;;;;0.10;0.10;;;;;;;;;;5035628;28;20521;-70
2021/10/08 06:17:45;;;;;;;0.10;0.10;;;;;;;;;;5037257;28;20207;-70
2021/10/08 06:20:13;;;;;;;0.50;0.50;;;;;;;;;;5025603;28;20212;-70
2021/10/08 06:22:40;;;;;;;0.10;0.10;;;;;;;;;;5037114;28;20417;-70
2021/10/08 06:25:07;;;;;;;0.10;0.10;;;;;;;;;;5035103;28;20326;-71
2021/10/08 06:27:34;;;;;;;0.10;0.10;;;;;;;;;;5037300;28;20388;-71
2021/10/08 06:30:00;;;;;;;0.10;0.10;;;;;;;;;;5041878;28;20201;-72
2021/10/08 06:32:26;;;;;;;5.37;4.93;;;;;;;;;;5034515;28;20474;-71
2021/10/08 06:34:52;;;;;;;0.10;0.10;;;;;;;;;;5039529;28;20203;-71
2021/10/08 06:37:22;;;;;;;0.10;0.10;;;;;;;;;;5029376;28;20208;-71
2021/10/08 06:39:49;;;;;;;0.10;0.10;;;;;;;;;;5033213;28;20441;-71
2021/10/08 06:42:15;;;;;;;0.10;0.10;;;;;;;;;;5030374;28;20215;-71
2021/10/08 06:44:42;;;;;;;0.00;0.00;;;;;;;;;;5030595;28;20216;-71
2021/10/08 06:47:08;;;;;;;0.10;0.10;;;;;;;;;;5051153;28;20246;-72
2021/10/08 06:49:35;;;;;;;0.10;0.10;;;;;;;;;;5032326;28;20226;-71
2021/10/08 06:52:01;;;;;;;0.10;0.10;;;;;;;;;;5061066;28;20432;-71
2021/10/08 06:54:29;;;;;;;0.10;0.10;;;;;;;;;;5047880;28;20206;-71
2021/10/08 06:56:55;;;;;;;0.10;0.10;;;;;;;;;;5042831;28;20208;-70
2021/10/08 06:59:21;;;;;;;0.10;0.10;;;;;;;;;;5042957;28;20262;-71
2021/10/08 07:01:47;;;;;;;0.10;0.10;;;;;;;;;;5041654;28;20395;-71
2021/10/08 07:04:13;;;;;;;0.10;0.10;;;;;;;;;;5034096;28;20257;-71
2021/10/08 07:06:41;;;;;;;0.10;0.10;;;;;;;;;;5041078;28;20497;-70
2021/10/08 07:09:07;;;;;;;0.10;0.10;;;;;;;;;;5036375;28;20300;-70
2021/10/08 07:11:35;;;;;;;0.10;0.10;;;;;;;;;;5039115;28;20208;-71
2021/10/08 07:14:01;;;;;;;0.10;0.10;;;;;;;;;;5042070;28;20207;-71
2021/10/08 07:16:27;;;;;;;0.10;0.10;;;;;;;;;;5042338;28;20544;-72
2021/10/08 07:18:55;;;;;;;0.10;0.10;;;;;;;;;;5042660;28;20498;-72
2021/10/08 07:21:22;;;;;;;0.10;0.10;;;;;;;;;;5042768;28;20207;-73
2021/10/08 07:23:48;;;;;;;0.10;0.10;;;;;;;;;;5042307;28;20207;-71
2021/10/08 07:26:15;;;;;;;0.10;0.10;;;;;;;;;;5042442;28;20305;-71
2021/10/08 07:28:43;;;;;;;0.00;0.00;;;;;;;;;;5054881;28;20294;-71
2021/10/08 07:31:09;;;;;;;0.10;0.10;;;;;;;;;;5043630;28;20203;-73
2021/10/08 07:33:35;;;;;;;0.10;0.10;;;;;;;;;;5042355;28;20205;-72
2021/10/08 07:36:02;;;;;;;0.10;0.10;;;;;;;;;;5042536;28;20219;-71
2021/10/08 07:38:28;;;;;;;0.10;0.10;;;;;;;;;;5042280;28;20311;-71
2021/10/08 07:40:54;;;;;;;0.10;0.10;;;;;;;;;;5028514;28;20266;-71
2021/10/08 07:43:20;;;;;;;0.10;0.10;;;;;;;;;;5042422;28;20204;-71
2021/10/08 07:45:48;;;;;;;0.10;0.10;;;;;;;;;;5042587;28;20436;-71
2021/10/08 07:48:14;;;;;;;0.10;0.10;;;;;;;;;;5047567;28;20233;-71
2021/10/08 07:50:40;;;;;;;0.10;0.10;;;;;;;;;;5051215;28;20419;-71
2021/10/08 07:53:07;;;;;;;0.10;0.10;;;;;;;;;;5045570;28;20244;-72
2021/10/08 07:55:33;;;;;;;0.10;0.10;;;;;;;;;;5052482;28;20203;-71
2021/10/08 07:57:59;;;;;;;0.10;0.10;;;;;;;;;;5042296;28;20207;-72
2021/10/08 08:00:26;;;;;;;0.10;0.10;;;;;;;;;;5051018;28;20355;-72
2021/10/08 08:02:53;;;;;;;0.10;0.10;;;;;;;;;;5038580;28;20212;-72
2021/10/08 08:05:19;;;;;;;0.10;0.10;;;;;;;;;;5031821;28;20209;-72
2021/10/08 08:07:46;;;;;;;0.73;0.73;;;;;;;;;;5058205;28;20249;-72
2021/10/08 08:10:13;;;;;;;0.10;0.10;;;;;;;;;;5033571;28;20322;-71
2021/10/08 08:12:39;;;;;;;0.10;0.10;;;;;;;;;;5045850;28;20567;-71
2021/10/08 08:15:06;;;;;;;0.10;0.10;;;;;;;;;;5045773;28;20515;-72
2021/10/08 08:17:32;;;;;;;0.10;0.10;;;;;;;;;;5045737;28;20257;-73
2021/10/08 08:20:00;;;;;;;0.10;0.10;;;;;;;;;;5045716;28;20397;-73
2021/10/08 08:22:26;;;;;;;0.10;0.10;;;;;;;;;;5050165;28;20219;-72
2021/10/08 08:24:53;;;;;;;0.10;0.10;;;;;;;;;;5054045;28;20213;-71
2021/10/08 08:27:19;;;;;;;0.10;0.10;;;;;;;;;;5050300;28;20402;-73
2021/10/08 08:29:46;;;;;;;0.10;0.10;;;;;;;;;;5045426;28;20403;-72
2021/10/08 08:32:12;;;;;;;0.10;0.10;;;;;;;;;;5058749;28;20206;-71
2021/10/08 08:34:38;;;;;;;0.10;0.10;;;;;;;;;;5031406;28;20450;-70
2021/10/08 08:37:08;;;;;;;0.10;0.10;;;;;;;;;;5045098;28;20200;-71
2021/10/08 08:39:38;;;;;;;2.63;2.50;;;;;;;;;;5044835;28;20240;-71
2021/10/08 08:42:04;;;;;;;0.10;0.10;;;;;;;;;;5039365;28;20275;-73
2021/10/08 08:44:31;;;;;;;0.08;0.08;;;;;;;;;;5037268;28;20206;-71
2021/10/08 08:46:58;;;;;;;0.10;0.10;;;;;;;;;;5040983;28;20205;-71
2021/10/08 08:49:24;;;;;;;0.10;0.10;;;;;;;;;;5035567;28;20399;-70
2021/10/08 08:51:51;;;;;;;0.10;0.10;;;;;;;;;;5042353;28;20205;-71
2021/10/08 08:54:18;;;;;;;0.10;0.10;;;;;;;;;;5033335;28;20230;-71
2021/10/08 08:56:45;;;;;;;0.10;0.10;;;;;;;;;;5044136;28;20494;-71
2021/10/08 08:59:12;;;;;;;0.00;0.00;;;;;;;;;;5031702;28;20400;-71
2021/10/08 09:01:58;;;;;;;0.10;0.10;;;;;;;;;;5044794;28;20246;-72
2021/10/08 09:04:28;;;;;;;0.10;0.10;;;;;;;;;;5030123;28;20410;-71
2021/10/08 09:06:54;;;;;;;0.08;0.08;;;;;;;;;;5032450;28;20448;-72
2021/10/08 09:09:23;;;;;;;3.70;3.58;;;;;;;;;;5036432;28;20279;-71
2021/10/08 09:11:50;;;;;;;0.10;0.10;;;;;;;;;;5040882;28;20220;-71
2021/10/08 09:14:17;;;;;;;0.08;0.08;;;;;;;;;;5043247;28;20198;-71
2021/10/08 09:17:02;;;;;;;0.10;0.10;;;;;;;;;;5040121;28;20250;-70
2021/10/08 09:19:43;;;;;;;0.10;0.10;;;;;;;;;;5036129;28;20207;-71
2021/10/08 09:22:10;;;;;;;0.10;0.10;;;;;;;;;;5033780;28;20231;-72
2021/10/08 09:24:37;;;;;;;0.10;0.10;;;;;;;;;;5045355;28;20245;-72
2021/10/08 09:27:07;;;;;;;0.00;0.00;;;;;;;;;;5041111;28;20268;-72
2021/10/08 09:29:34;;;;;;;0.10;0.10;;;;;;;;;;5043894;28;20277;-71
2021/10/08 09:32:00;;;;;;;0.00;0.00;;;;;;;;;;5035930;28;20205;-71
2021/10/08 09:34:27;;;;;;;0.05;0.05;;;;;;;;;;5043858;28;20512;-72
2021/10/08 09:36:57;;;;;;;0.00;0.00;;;;;;;;;;5043189;28;20242;-70
2021/10/08 09:39:27;;;;;;;0.00;0.00;;;;;;;;;;5034700;28;20244;-72
2021/10/08 09:41:57;;;;;;;0.10;0.10;;;;;;;;;;5042991;28;20217;-72
2021/10/08 09:44:24;;;;;;;0.00;0.00;;;;;;;;;;5040956;28;20210;-72
2021/10/08 09:46:50;;;;;;;0.10;0.10;;;;;;;;;;5038928;28;20250;-70
2021/10/08 09:49:20;;;;;;;0.00;0.00;;;;;;;;;;5042839;28;20286;-72
2021/10/08 09:51:46;;;;;;;0.05;0.05;;;;;;;;;;5057132;28;20207;-73
2021/10/08 09:54:13;;;;;;;0.00;0.00;;;;;;;;;;5043015;28;20244;-72
2021/10/08 09:56:40;;;;;;;0.00;0.00;;;;;;;;;;5043547;28;20205;-71
2021/10/08 09:59:10;;;;;;;0.00;0.00;;;;;;;;;;5042348;28;20487;-71
2021/10/08 10:01:36;;;;;;;0.00;0.00;;;;;;;;;;5041638;28;20216;-72
2021/10/08 10:04:03;;;;;;;0.10;0.10;;;;;;;;;;5040540;28;20303;-72
2021/10/08 10:06:30;;;;;;;0.00;0.00;;;;;;;;;;5043639;28;20246;-70
2021/10/08 10:08:56;;;;;;;0.00;0.00;;;;;;;;;;5039893;28;20541;-71
2021/10/08 10:11:23;;;;;;;0.00;0.00;;;;;;;;;;5038355;28;20484;-71
2021/10/08 10:13:52;;;;;;;0.00;0.00;;;;;;;;;;5041915;28;20223;-70
2021/10/08 10:16:20;;;;;;;0.00;0.00;;;;;;;;;;5042273;28;20232;-71
2021/10/08 10:18:47;;;;;;;0.10;0.10;;;;;;;;;;5045079;28;20208;-71
2021/10/08 10:21:15;;;;;;;7.43;7.03;;;;;;;;;;5043492;28;20347;-70
2021/10/08 10:23:42;;;;;;;0.00;0.00;;;;;;;;;;5041514;28;20205;-70
2021/10/08 10:26:08;;;;;;;0.00;0.00;;;;;;;;;;5041026;28;20204;-72
2021/10/08 10:28:34;;;;;;;0.08;0.08;;;;;;;;;;5041541;28;20205;-72
2021/10/08 10:31:03;;;;;;;0.00;0.00;;;;;;;;;;5046275;28;20290;-72
2021/10/08 10:33:31;;;;;;;0.40;0.40;;;;;;;;;;5060402;28;20204;-72
2021/10/08 10:36:00;;;;;;;0.00;0.00;;;;;;;;;;5044447;28;20429;-71
2021/10/08 10:38:27;;;;;;;0.00;0.00;;;;;;;;;;5042874;28;20258;-73
2021/10/08 10:41:08;;;;;;;0.00;0.00;;;;;;;;;;5040761;28;20231;-70
2021/10/08 10:43:36;;;;;;;0.08;0.08;;;;;;;;;;5030220;28;20255;-71
2021/10/08 10:46:17;;;;;;;0.00;0.00;;;;;;;;;;5045045;28;20236;-72
2021/10/08 10:49:10;;;;;;;0.00;0.00;;;;;;;;;;5035038;28;20272;-70
2021/10/08 10:51:36;;;;;;;0.00;0.00;;;;;;;;;;5043029;28;20297;-73
2021/10/08 10:54:02;;;;;;;0.00;0.00;;;;;;;;;;5045178;28;20205;-72
2021/10/08 10:56:41;;;;;;;0.10;0.10;;;;;;;;;;5048817;28;20395;-71
2021/10/08 10:59:25;;;;;;;0.10;0.10;;;;;;;;;;5043241;28;20209;-73
2021/10/08 11:02:11;;;;;;;0.10;0.10;;;;;;;;;;5033454;28;20435;-72
2021/10/08 11:04:40;;;;;;;0.00;0.00;;;;;;;;;;5047786;28;20407;-73
2021/10/08 11:07:08;;;;;;;0.05;0.05;;;;;;;;;;5039081;28;20205;-71
2021/10/08 11:09:36;;;;;;;0.20;0.20;;;;;;;;;;5042185;28;20221;-71
2021/10/08 11:12:29;;;;;;;0.00;0.00;;;;;;;;;;5042705;28;20217;-72
2021/10/08 11:15:14;;;;;;;0.00;0.00;;;;;;;;;;5012481;28;20204;-72
2021/10/08 11:17:46;;;;;;;0.00;0.00;;;;;;;;;;5047762;28;20252;-72
2021/10/08 11:20:27;;;;;;;0.00;0.00;;;;;;;;;;5042839;28;20239;-71
2021/10/08 11:22:56;;;;;;;0.00;0.00;;;;;;;;;;5029036;28;20201;-72
2021/10/08 11:25:22;;;;;;;0.25;0.25;;;;;;;;;;5042731;28;20216;-72
2021/10/08 11:27:49;;;;;;;0.00;0.00;;;;;;;;;;5042753;28;20549;-67
2021/10/08 11:30:16;;;;;;;0.00;0.00;;;;;;;;;;5042684;28;20220;-68
2021/10/08 11:32:45;;;;;;;0.00;0.00;;;;;;;;;;5039294;28;20240;-67
2021/10/08 11:35:14;;;;;;;0.00;0.00;;;;;;;;;;5037204;28;20201;-67
2021/10/08 11:37:44;;;;;;;0.00;0.00;;;;;;;;;;5046342;28;20267;-67
2021/10/08 11:40:14;;;;;;;0.00;0.00;;;;;;;;;;5054794;28;20231;-67
2021/10/08 11:42:43;;;;;;;0.00;0.00;;;;;;;;;;5050341;28;20291;-67
2021/10/08 11:45:14;;;;;;;0.00;0.00;;;;;;;;;;5046269;28;20224;-67
2021/10/08 11:47:44;;;;;;;0.00;0.00;;;;;;;;;;5059663;28;20335;-66
2021/10/08 11:50:40;;;;;;;0.00;0.00;;;;;;;;;;5040313;28;20224;-66
2021/10/08 11:53:08;;;;;;;0.00;0.00;;;;;;;;;;5048519;28;20196;-66
2021/10/08 11:55:38;;;;;;;0.00;0.00;;;;;;;;;;5038586;28;20205;-66
2021/10/08 11:58:07;;;;;;;0.05;0.05;;;;;;;;;;5033869;28;20551;-66
2021/10/08 12:00:35;;;;;;;0.00;0.00;;;;;;;;;;5034250;28;20208;-67
2021/10/08 12:03:03;;;;;;;0.00;0.00;;;;;;;;;;5046888;28;20272;-66
2021/10/08 12:05:46;;;;;;;0.00;0.00;;;;;;;;;;5045889;28;20211;-65
2021/10/08 12:08:14;;;;;;;0.00;0.00;;;;;;;;;;5044285;28;20204;-66
2021/10/08 12:10:51;;;;;;;0.00;0.00;;;;;;;;;;5036642;28;20232;-66
2021/10/08 12:13:18;;;;;;;0.00;0.00;;;;;;;;;;5049874;28;20460;-65
2021/10/08 12:15:44;;;;;;;0.10;0.10;;;;;;;;;;5042737;28;20518;-66
2021/10/08 12:18:14;;;;;;;0.00;0.00;;;;;;;;;;5045733;28;20208;-66
2021/10/08 12:20:41;;;;;;;0.15;0.15;;;;;;;;;;5036606;28;20219;-66
2021/10/08 12:23:14;;;;;;;0.00;0.00;;;;;;;;;;5034535;28;20205;-66
2021/10/08 12:25:40;;;;;;;0.00;0.00;;;;;;;;;;5031264;28;20217;-66
2021/10/08 12:28:08;;;;;;;0.10;0.10;;;;;;;;;;5032211;28;20370;-65
2021/10/08 12:30:48;;;;;;;0.08;0.08;;;;;;;;;;5033145;28;20287;-66
2021/10/08 12:33:22;;;;;;;0.00;0.00;;;;;;;;;;5035596;28;20499;-67
2021/10/08 12:36:03;;;;;;;0.00;0.00;;;;;;;;;;5033904;28;20553;-66
2021/10/08 12:38:50;;;;;;;3.28;3.17;;;;;;;;;;5029038;28;20335;-66
2021/10/08 12:41:21;;;;;;;0.00;0.00;;;;;;;;;;5034912;28;20212;-67
2021/10/08 12:43:48;;;;;;;0.00;0.00;;;;;;;;;;5035929;28;20230;-65
2021/10/08 12:46:19;;;;;;;0.00;0.00;;;;;;;;;;5040017;28;20228;-66
2021/10/08 12:48:45;;;;;;;0.10;0.10;;;;;;;;;;5036485;28;20365;-65
2021/10/08 12:51:12;;;;;;;0.00;0.00;;;;;;;;;;5047108;28;20228;-66
2021/10/08 12:53:38;;;;;;;0.00;0.00;;;;;;;;;;5041368;28;20207;-66
2021/10/08 12:56:19;;;;;;;0.00;0.00;;;;;;;;;;5041386;28;20505;-66
2021/10/08 12:58:51;;;;;;;0.00;0.00;;;;;;;;;;5029138;28;20204;-66
2021/10/08 13:01:17;;;;;;;0.08;0.08;;;;;;;;;;5039001;28;20201;-66
2021/10/08 13:03:44;;;;;;;0.00;0.00;;;;;;;;;;5039814;28;20207;-67
2021/10/08 13:06:13;;;;;;;0.05;0.05;;;;;;;;;;5044474;28;20231;-67
2021/10/08 13:08:41;;;;;;;0.00;0.00;;;;;;;;;;5043609;28;20213;-66
2021/10/08 13:11:09;;;;;;;0.10;0.10;;;;;;;;;;5041284;28;20224;-66
2021/10/08 13:13:36;;;;;;;0.00;0.00;;;;;;;;;;5041164;28;20226;-65
2021/10/08 13:16:05;;;;;;;0.10;0.10;;;;;;;;;;5036586;28;20249;-65
2021/10/08 13:18:38;;;;;;;0.10;0.10;;;;;;;;;;5033529;28;20235;-65
2021/10/08 13:21:05;;;;;;;0.00;0.00;;;;;;;;;;5043351;28;20271;-65
2021/10/08 13:23:32;;;;;;;0.00;0.00;;;;;;;;;;5040544;28;20211;-65
2021/10/08 13:25:59;;;;;;;0.00;0.00;;;;;;;;;;5030432;28;20371;-66
2021/10/08 13:28:25;;;;;;;0.00;0.00;;;;;;;;;;5031176;28;20210;-66
2021/10/08 13:30:53;;;;;;;0.10;0.10;;;;;;;;;;5042162;28;20228;-67
2021/10/08 13:33:21;;;;;;;0.10;0.10;;;;;;;;;;5024944;28;20212;-67
2021/10/08 13:35:48;;;;;;;10.48;9.57;;;;;;;;;;5038497;28;20483;-65
2021/10/08 13:38:14;;;;;;;0.20;0.20;;;;;;;;;;5024428;28;20208;-66
2021/10/08 13:40:40;;;;;;;0.00;0.00;;;;;;;;;;5037870;28;20262;-65
2021/10/08 13:43:07;;;;;;;0.00;0.00;;;;;;;;;;5041713;28;20270;-65
2021/10/08 13:45:33;;;;;;;0.08;0.08;;;;;;;;;;5053612;28;20250;-65
2021/10/08 13:47:59;;;;;;;0.00;0.00;;;;;;;;;;5044691;28;20202;-66
2021/10/08 13:50:27;;;;;;;0.10;0.10;;;;;;;;;;5052145;28;20248;-65
2021/10/08 13:52:53;;;;;;;0.00;0.00;;;;;;;;;;5038044;28;20215;-65
2021/10/08 13:55:19;;;;;;;0.00;0.00;;;;;;;;;;5040093;28;20208;-65
2021/10/08 13:57:46;;;;;;;0.10;0.10;;;;;;;;;;5036151;28;20552;-65
2021/10/08 14:00:12;;;;;;;0.10;0.10;;;;;;;;;;5042527;28;20222;-65
2021/10/08 14:02:44;;;;;;;0.00;0.00;;;;;;;;;;5042919;28;20211;-66
2021/10/08 14:05:16;;;;;;;0.00;0.00;;;;;;;;;;5046690;28;20197;-65
2021/10/08 14:10:27;;;;;;;0.00;0.00;;;;;;;;;;5043832;28;20281;-65
2021/10/08 14:12:55;;;;;;;0.10;0.10;;;;;;;;;;5038752;28;20212;-66
2021/10/08 14:15:22;;;;;;;0.10;0.10;;;;;;;;;;5043071;28;20209;-67
2021/10/08 14:17:49;;;;;;;0.00;0.00;;;;;;;;;;5036842;28;20273;-66
2021/10/08 14:20:16;;;;;;;0.00;0.00;;;;;;;;;;5036719;28;20200;-64
2021/10/08 14:22:44;;;;;;;0.00;0.00;;;;;;;;;;5041236;28;20201;-65
2021/10/08 14:25:11;;;;;;;0.00;0.00;;;;;;;;;;5037793;28;20247;-65
2021/10/08 14:27:37;;;;;;;0.00;0.00;;;;;;;;;;5028924;28;20205;-64
2021/10/08 14:30:05;;;;;;;0.10;0.10;;;;;;;;;;5034660;28;20385;-65
2021/10/08 14:32:31;;;;;;;0.10;0.10;;;;;;;;;;5048307;28;20206;-68
2021/10/08 14:34:57;;;;;;;0.00;0.00;;;;;;;;;;5037042;28;20201;-69
2021/10/08 14:37:23;;;;;;;0.10;0.10;;;;;;;;;;5043060;28;20204;-65
2021/10/08 14:39:51;;;;;;;0.05;0.05;;;;;;;;;;5028792;28;20239;-68
2021/10/08 14:42:18;;;;;;;0.00;0.00;;;;;;;;;;5035597;28;20327;-69
2021/10/08 14:44:44;;;;;;;0.10;0.10;;;;;;;;;;5035962;28;20202;-69
2021/10/08 14:47:10;;;;;;;0.00;0.00;;;;;;;;;;5044529;28;20204;-70
2021/10/08 14:49:36;;;;;;;0.00;0.00;;;;;;;;;;5051973;28;20206;-71
2021/10/08 14:52:04;;;;;;;0.00;0.00;;;;;;;;;;5052306;28;20227;-70
2021/10/08 14:54:40;;;;;;;0.00;0.00;;;;;;;;;;5032881;28;20215;-70
2021/10/08 14:59:48;;;;;;;0.00;0.00;;;;;;;;;;5030721;28;20203;-69
2021/10/08 15:02:14;;;;;;;0.10;0.10;;;;;;;;;;5032259;28;20215;-68
2021/10/08 15:04:41;;;;;;;0.10;0.10;;;;;;;;;;5032431;28;20219;-67
2021/10/08 15:07:08;;;;;;;0.08;0.08;;;;;;;;;;5029030;28;20209;-68
2021/10/08 15:09:34;;;;;;;0.10;0.10;;;;;;;;;;5031892;28;20329;-68
2021/10/08 15:12:00;;;;;;;0.00;0.00;;;;;;;;;;5031656;28;20231;-68
2021/10/08 15:14:28;;;;;;;0.00;0.00;;;;;;;;;;5039570;28;20208;-67
2021/10/08 15:16:54;;;;;;;0.00;0.00;;;;;;;;;;5043546;28;20207;-68
2021/10/08 15:19:21;;;;;;;0.10;0.10;;;;;;;;;;5033355;28;20243;-68
2021/10/08 15:21:47;;;;;;;0.10;0.10;;;;;;;;;;5035116;28;20242;-64
2021/10/08 15:24:13;;;;;;;0.00;0.00;;;;;;;;;;5037356;28;20574;-65
2021/10/08 15:26:39;;;;;;;0.00;0.00;;;;;;;;;;5029089;28;20358;-65
2021/10/08 15:29:06;;;;;;;0.10;0.10;;;;;;;;;;5030653;28;20241;-65
2021/10/08 15:31:33;;;;;;;0.10;0.10;;;;;;;;;;5034607;28;20217;-64